createdAt,value
2023-02-24T00:01:08.957Z,17.17
2023-02-24T00:03:37.448Z,15.05
2023-02-24T00:06:11.861Z,17.90
2023-02-24T00:08:39.888Z,13.30
2023-02-24T00:11:13.089Z,17.05
2023-02-24T00:13:40.937Z,15.65
2023-02-24T00:16:08.103Z,14.43
2023-02-24T00:18:35.494Z,11.45
2023-02-24T00:21:13.585Z,14.43
2023-02-24T00:23:41.804Z,17.42
2023-02-24T00:26:10.092Z,13.50
2023-02-24T00:28:37.427Z,19.55
2023-02-24T00:31:19.650Z,15.93
2023-02-24T00:33:47.423Z,18.83
2023-02-24T00:36:16.961Z,16.15
2023-02-24T00:38:47.005Z,15.98
2023-02-24T00:41:25.252Z,19.13
2023-02-24T00:43:51.771Z,16.02
2023-02-24T00:46:20.849Z,16.33
2023-02-24T00:48:48.820Z,16.95
2023-02-24T00:51:18.009Z,14.07
2023-02-24T00:53:45.078Z,17.88
2023-02-24T00:56:17.952Z,24.55
2023-02-24T00:58:47.724Z,19.20
2023-02-24T01:01:19.828Z,16.73
2023-02-24T01:03:50.960Z,22.55
2023-02-24T01:08:48.171Z,17.17
2023-02-24T01:11:34.555Z,22.13
2023-02-24T01:14:03.969Z,17.17
2023-02-24T01:16:30.488Z,21.98
2023-02-24T01:18:57.002Z,22.40
2023-02-24T01:21:24.075Z,22.30
2023-02-24T01:23:50.948Z,20.80
2023-02-24T01:26:18.481Z,19.42
2023-02-24T01:28:48.435Z,20.23
2023-02-24T01:31:20.992Z,21.63
2023-02-24T01:33:48.128Z,27.40
2023-02-24T01:36:17.512Z,29.58
2023-02-24T01:38:45.009Z,22.38
2023-02-24T01:41:16.888Z,25.38
2023-02-24T01:44:14.030Z,17.45
2023-02-24T01:46:42.848Z,22.15
2023-02-24T01:49:20.379Z,19.02
2023-02-24T01:51:54.377Z,19.63
2023-02-24T01:54:24.871Z,17.83
2023-02-24T01:56:52.593Z,18.85
2023-02-24T01:59:20.465Z,24.50
2023-02-24T02:01:48.107Z,17.38
2023-02-24T02:04:36.743Z,17.20
2023-02-24T02:07:03.830Z,20.55
2023-02-24T02:09:31.002Z,21.45
2023-02-24T02:11:57.522Z,20.58
2023-02-24T02:14:26.260Z,25.85
2023-02-24T02:17:22.075Z,19.92
2023-02-24T02:20:15.369Z,20.30
2023-02-24T02:23:07.446Z,17.65
2023-02-24T02:25:45.487Z,15.38
2023-02-24T02:28:33.553Z,23.77
2023-02-24T02:31:25.888Z,23.08
2023-02-24T02:34:01.736Z,18.10
2023-02-24T02:36:33.230Z,13.23
2023-02-24T02:39:17.216Z,13.48
2023-02-24T02:41:49.736Z,17.67
2023-02-24T02:44:34.394Z,21.63
2023-02-24T02:47:10.448Z,16.50
2023-02-24T02:49:41.046Z,16.38
2023-02-24T02:52:15.590Z,23.88
2023-02-24T02:55:03.692Z,16.50
2023-02-24T02:57:31.673Z,28.30
2023-02-24T03:00:13.556Z,22.75
2023-02-24T03:02:43.155Z,13.68
2023-02-24T03:05:11.358Z,17.73
2023-02-24T03:07:42.116Z,19.48
2023-02-24T03:10:17.724Z,12.77
2023-02-24T03:12:59.827Z,16.40
2023-02-24T03:15:28.504Z,17.20
2023-02-24T03:18:02.711Z,14.60
2023-02-24T03:20:52.093Z,14.40
2023-02-24T03:23:25.242Z,21.45
2023-02-24T03:25:59.056Z,15.88
2023-02-24T03:28:37.492Z,19.17
2023-02-24T03:31:23.896Z,13.27
2023-02-24T03:34:00.587Z,26.27
2023-02-24T03:36:30.711Z,13.40
2023-02-24T03:38:58.325Z,15.85
2023-02-24T03:41:41.124Z,18.98
2023-02-24T03:44:09.664Z,20.10
2023-02-24T03:46:36.205Z,18.80
2023-02-24T03:49:16.555Z,21.02
2023-02-24T03:52:24.078Z,13.13
2023-02-24T03:55:18.601Z,20.40
2023-02-24T03:58:21.346Z,20.67
2023-02-24T04:01:06.548Z,20.67
2023-02-24T04:04:08.509Z,20.63
2023-02-24T04:06:46.691Z,11.05
2023-02-24T04:09:17.690Z,22.60
2023-02-24T04:14:16.457Z,19.73
2023-02-24T04:16:57.059Z,13.68
2023-02-24T04:19:27.653Z,25.92
2023-02-24T04:21:54.785Z,12.73
2023-02-24T04:24:24.213Z,20.48
2023-02-24T04:26:51.723Z,14.02
2023-02-24T04:29:23.011Z,18.90
2023-02-24T04:31:54.589Z,20.88
2023-02-24T04:34:21.155Z,25.10
2023-02-24T04:36:49.576Z,14.13
2023-02-24T04:39:20.799Z,14.57
2023-02-24T04:41:49.382Z,18.42
2023-02-24T04:44:21.103Z,18.50
2023-02-24T04:46:49.919Z,21.48
2023-02-24T04:49:18.024Z,13.45
2023-02-24T04:51:45.095Z,19.98
2023-02-24T04:54:17.603Z,15.85
2023-02-24T04:56:47.888Z,11.95
2023-02-24T04:59:15.176Z,10.25
2023-02-24T05:04:40.190Z,13.23
2023-02-24T05:07:06.677Z,14.85
2023-02-24T05:09:33.370Z,17.88
2023-02-24T05:12:00.331Z,12.20
2023-02-24T05:14:26.948Z,14.25
2023-02-24T05:17:00.027Z,23.42
2023-02-24T05:19:45.308Z,21.02
2023-02-24T05:22:14.414Z,19.55
2023-02-24T05:24:41.154Z,13.35
2023-02-24T05:27:07.820Z,20.90
2023-02-24T05:29:35.344Z,18.88
2023-02-24T05:32:04.202Z,19.30
2023-02-24T05:34:32.377Z,13.15
2023-02-24T05:37:01.532Z,23.02
2023-02-24T05:39:28.511Z,15.93
2023-02-24T05:41:56.954Z,19.77
2023-02-24T05:44:26.009Z,19.67
2023-02-24T05:47:00.911Z,17.25
2023-02-24T05:49:32.958Z,14.65
2023-02-24T05:52:08.038Z,12.85
2023-02-24T05:54:39.636Z,15.93
2023-02-24T05:57:19.580Z,23.77
2023-02-24T05:59:48.295Z,16.40
2023-02-24T06:02:23.242Z,15.07
2023-02-24T06:04:54.039Z,18.75
2023-02-24T06:07:25.851Z,15.02
2023-02-24T06:09:54.444Z,18.02
2023-02-24T06:12:23.005Z,14.73
2023-02-24T06:14:49.583Z,19.63
2023-02-24T06:17:17.253Z,15.57
2023-02-24T06:19:44.933Z,12.73
2023-02-24T06:22:15.829Z,15.55
2023-02-24T06:27:19.656Z,13.55
2023-02-24T06:29:49.944Z,19.25
2023-02-24T06:32:27.335Z,17.15
2023-02-24T06:34:54.847Z,20.38
2023-02-24T06:37:23.054Z,10.40
2023-02-24T06:39:49.759Z,12.48
2023-02-24T06:42:16.641Z,14.63
2023-02-24T06:44:43.486Z,12.63
2023-02-24T06:47:13.421Z,15.05
2023-02-24T06:49:40.649Z,19.33
2023-02-24T06:52:08.693Z,15.88
2023-02-24T06:54:36.175Z,13.93
2023-02-24T06:57:03.626Z,11.75
2023-02-24T06:59:30.202Z,13.35
2023-02-24T07:01:58.214Z,11.38
2023-02-24T07:04:28.273Z,15.40
2023-02-24T07:06:57.920Z,15.45
2023-02-24T07:09:26.077Z,19.20
2023-02-24T07:11:55.934Z,10.70
2023-02-24T07:14:24.629Z,11.60
2023-02-24T07:16:54.162Z,10.45
2023-02-24T07:19:24.134Z,18.23
2023-02-24T07:21:52.637Z,14.73
2023-02-24T07:24:33.165Z,13.23
2023-02-24T07:27:02.616Z,12.55
2023-02-24T07:29:30.546Z,12.15
2023-02-24T07:32:03.426Z,11.57
2023-02-24T07:34:30.657Z,14.85
2023-02-24T07:36:57.881Z,15.00
2023-02-24T07:39:25.665Z,12.18
2023-02-24T07:41:55.106Z,14.50
2023-02-24T07:44:23.601Z,11.63
2023-02-24T07:46:51.110Z,16.45
2023-02-24T07:49:21.095Z,17.75
2023-02-24T07:51:52.820Z,8.73
2023-02-24T07:54:25.203Z,21.63
2023-02-24T07:56:58.913Z,21.50
2023-02-24T07:59:28.888Z,14.20
2023-02-24T08:01:56.282Z,9.13
2023-02-24T08:04:32.970Z,8.60
2023-02-24T08:07:03.240Z,14.70
2023-02-24T08:09:44.817Z,11.32
2023-02-24T08:12:22.816Z,7.95
2023-02-24T08:14:52.268Z,11.07
2023-02-24T08:17:24.152Z,16.35
2023-02-24T08:20:12.470Z,8.13
2023-02-24T08:22:43.861Z,11.57
2023-02-24T08:25:18.150Z,14.52
2023-02-24T08:27:58.412Z,12.13
2023-02-24T08:30:38.596Z,10.07
2023-02-24T08:33:08.201Z,10.95
2023-02-24T08:35:37.100Z,13.20
2023-02-24T08:38:18.759Z,12.60
2023-02-24T08:40:50.906Z,13.18
2023-02-24T08:43:19.743Z,9.63
2023-02-24T08:45:50.863Z,13.90
2023-02-24T08:48:37.301Z,12.65
2023-02-24T08:51:11.444Z,14.23
2023-02-24T08:53:40.604Z,11.57
2023-02-24T08:56:11.498Z,18.05
2023-02-24T09:01:24.082Z,13.63
2023-02-24T09:03:54.780Z,12.20
2023-02-24T09:06:27.883Z,9.32
2023-02-24T09:09:16.569Z,11.23
2023-02-24T09:11:56.960Z,14.55
2023-02-24T09:14:29.438Z,18.15
2023-02-24T09:17:05.484Z,14.65
2023-02-24T09:19:48.150Z,12.48
2023-02-24T09:22:31.193Z,12.75
2023-02-24T09:25:19.147Z,23.17
2023-02-24T09:27:56.925Z,18.92
2023-02-24T09:30:38.089Z,12.18
2023-02-24T09:33:20.867Z,18.17
2023-02-24T09:36:12.920Z,13.05
2023-02-24T09:38:59.190Z,13.02
2023-02-24T09:41:53.381Z,18.75
2023-02-24T09:44:28.710Z,14.85
2023-02-24T09:47:08.968Z,17.13
2023-02-24T09:49:49.580Z,17.83
2023-02-24T09:52:18.311Z,10.30
2023-02-24T09:55:13.880Z,14.82
2023-02-24T09:58:17.886Z,16.80
2023-02-24T10:00:53.076Z,16.85
2023-02-24T10:03:42.374Z,11.32
2023-02-24T10:06:20.676Z,17.65
2023-02-24T10:08:55.333Z,16.58
2023-02-24T10:11:32.902Z,16.17
2023-02-24T10:14:05.493Z,17.10
2023-02-24T10:16:57.813Z,11.05
2023-02-24T10:19:25.049Z,15.10
2023-02-24T10:22:03.704Z,15.57
2023-02-24T10:24:35.831Z,8.43
2023-02-24T10:27:23.992Z,11.73
2023-02-24T10:30:05.162Z,10.95
2023-02-24T10:32:38.400Z,10.93
2023-02-24T10:35:06.194Z,12.23
2023-02-24T10:37:32.687Z,14.00
2023-02-24T10:40:09.458Z,12.32
2023-02-24T10:42:44.486Z,10.20
2023-02-24T10:45:17.650Z,12.18
2023-02-24T10:47:57.110Z,10.13
2023-02-24T10:50:32.843Z,10.65
2023-02-24T10:53:10.083Z,23.50
2023-02-24T10:55:45.552Z,11.57
2023-02-24T10:58:28.064Z,13.32
2023-02-24T11:01:13.204Z,16.98
2023-02-24T11:03:43.836Z,11.23
2023-02-24T11:06:40.706Z,11.35
2023-02-24T11:09:31.794Z,17.52
2023-02-24T11:15:14.922Z,16.38
2023-02-24T11:17:58.235Z,17.35
2023-02-24T11:20:48.366Z,14.50
2023-02-24T11:23:38.007Z,15.68
2023-02-24T11:26:17.134Z,13.70
2023-02-24T11:29:12.427Z,12.48
2023-02-24T11:31:45.259Z,11.98
2023-02-24T11:34:30.928Z,13.98
2023-02-24T11:37:22.755Z,10.27
2023-02-24T11:40:03.627Z,15.77
2023-02-24T11:42:43.760Z,17.85
2023-02-24T11:45:29.447Z,15.90
2023-02-24T11:48:05.322Z,16.77
2023-02-24T11:50:58.531Z,16.60
2023-02-24T11:53:30.093Z,16.48
2023-02-24T11:56:20.863Z,14.68
2023-02-24T11:59:02.407Z,17.35
2023-02-24T12:01:48.276Z,12.68
2023-02-24T12:04:35.099Z,13.40
2023-02-24T12:07:21.923Z,11.55
2023-02-24T12:10:06.982Z,14.50
2023-02-24T12:13:16.238Z,13.38
2023-02-24T12:15:55.363Z,16.85
2023-02-24T12:18:35.079Z,14.75
2023-02-24T12:21:07.940Z,21.48
2023-02-24T12:23:37.504Z,15.35
2023-02-24T12:26:16.296Z,18.27
2023-02-24T12:28:53.638Z,19.85
2023-02-24T12:32:03.028Z,16.15
2023-02-24T12:35:20.119Z,19.00
2023-02-24T12:38:17.848Z,24.17
2023-02-24T12:40:56.837Z,16.92
2023-02-24T12:43:37.628Z,24.05
2023-02-24T12:46:16.380Z,15.07
2023-02-24T12:49:24.074Z,25.27
2023-02-24T12:52:03.573Z,23.80
2023-02-24T12:54:33.240Z,14.15
2023-02-24T12:57:30.834Z,16.77
2023-02-24T13:00:05.509Z,17.88
2023-02-24T13:02:52.272Z,23.08
2023-02-24T13:05:37.889Z,22.48
2023-02-24T13:08:45.971Z,17.15
2023-02-24T13:11:30.312Z,13.70
2023-02-24T13:14:04.192Z,16.30
2023-02-24T13:16:34.179Z,26.15
2023-02-24T13:19:25.826Z,16.13
2023-02-24T13:22:16.837Z,19.08
2023-02-24T13:27:14.856Z,17.10
2023-02-24T13:29:46.593Z,18.65
2023-02-24T13:32:28.437Z,17.13
2023-02-24T13:34:56.815Z,18.30
2023-02-24T13:37:38.022Z,21.05
2023-02-24T13:40:19.459Z,18.60
2023-02-24T13:43:02.180Z,23.58
2023-02-24T13:45:33.442Z,20.08
2023-02-24T13:48:13.111Z,26.15
2023-02-24T13:51:08.677Z,29.67
2023-02-24T13:53:47.774Z,26.98
2023-02-24T13:56:41.937Z,25.52
2023-02-24T13:59:33.098Z,24.80
2023-02-24T14:04:35.570Z,30.00
2023-02-24T14:07:10.771Z,30.98
2023-02-24T14:09:40.198Z,25.20
2023-02-24T14:12:21.821Z,31.67
2023-02-24T14:14:49.598Z,32.78
2023-02-24T14:17:35.980Z,35.97
2023-02-24T14:20:22.115Z,30.20
2023-02-24T14:22:58.803Z,35.90
2023-02-24T14:25:28.268Z,32.40
2023-02-24T14:27:56.075Z,34.75
2023-02-24T14:30:25.955Z,31.73
2023-02-24T14:32:52.704Z,46.10
2023-02-24T14:35:24.094Z,41.30
2023-02-24T14:37:50.648Z,55.60
2023-02-24T14:40:17.312Z,42.40
2023-02-24T14:42:50.104Z,43.78
2023-02-24T14:45:20.330Z,43.42
2023-02-24T14:47:46.932Z,39.10
2023-02-24T14:50:18.961Z,43.72
2023-02-24T14:52:51.147Z,40.80
2023-02-24T14:55:21.523Z,45.50
2023-02-24T14:57:56.788Z,43.63
2023-02-24T15:00:26.132Z,39.42
2023-02-24T15:02:57.861Z,40.10
2023-02-24T15:05:24.443Z,48.80
2023-02-24T15:07:51.958Z,37.75
2023-02-24T15:10:30.144Z,42.22
2023-02-24T15:13:12.587Z,36.28
2023-02-24T15:15:39.584Z,40.85
2023-02-24T15:18:12.310Z,33.58
2023-02-24T15:20:40.832Z,38.95
2023-02-24T15:23:26.094Z,33.88
2023-02-24T15:25:52.781Z,33.85
2023-02-24T15:28:25.989Z,38.47
2023-02-24T15:31:00.183Z,43.03
2023-02-24T15:33:39.120Z,40.70
2023-02-24T15:36:11.156Z,42.03
2023-02-24T15:38:40.684Z,39.83
2023-02-24T15:41:08.435Z,35.22
2023-02-24T15:43:37.975Z,35.95
2023-02-24T15:46:19.885Z,33.58
2023-02-24T15:48:49.160Z,36.83
2023-02-24T15:51:37.868Z,32.55
2023-02-24T15:54:07.591Z,31.08
2023-02-24T15:56:35.158Z,37.47
2023-02-24T15:59:02.606Z,26.77
2023-02-24T16:01:30.633Z,37.47
2023-02-24T16:03:57.257Z,43.50
2023-02-24T16:06:24.614Z,27.38
2023-02-24T16:08:52.045Z,40.13
2023-02-24T16:11:21.294Z,27.15
2023-02-24T16:13:54.402Z,36.10
2023-02-24T16:16:21.711Z,29.88
2023-02-24T16:18:48.404Z,38.08
2023-02-24T16:21:15.052Z,24.80
2023-02-24T16:23:41.664Z,29.45
2023-02-24T16:26:14.982Z,25.13
2023-02-24T16:28:42.636Z,31.23
2023-02-24T16:31:09.331Z,22.55
2023-02-24T16:33:51.837Z,24.08
2023-02-24T16:36:21.735Z,30.60
2023-02-24T16:38:51.559Z,19.48
2023-02-24T16:41:18.249Z,28.45
2023-02-24T16:43:44.742Z,16.50
2023-02-24T16:46:17.252Z,15.65
2023-02-24T16:48:49.100Z,21.33
2023-02-24T16:51:17.490Z,15.50
2023-02-24T16:53:44.074Z,19.75
2023-02-24T16:56:12.015Z,14.82
2023-02-24T16:58:38.583Z,14.65
2023-02-24T17:01:05.678Z,15.40
2023-02-24T17:03:40.723Z,19.38
2023-02-24T17:06:07.284Z,22.92
2023-02-24T17:08:33.906Z,16.92
2023-02-24T17:11:00.447Z,17.98
2023-02-24T17:13:27.026Z,17.83
2023-02-24T17:15:55.498Z,14.63
2023-02-24T17:18:23.174Z,18.90
2023-02-24T17:20:50.091Z,13.85
2023-02-24T17:23:16.800Z,12.95
2023-02-24T17:25:43.477Z,11.02
2023-02-24T17:28:10.959Z,21.83
2023-02-24T17:30:38.484Z,17.02
2023-02-24T17:33:05.486Z,18.30
2023-02-24T17:35:32.048Z,11.35
2023-02-24T17:38:02.215Z,16.23
2023-02-24T17:40:29.281Z,11.63
2023-02-24T17:43:00.378Z,22.42
2023-02-24T17:45:26.930Z,12.68
2023-02-24T17:47:53.781Z,15.73
2023-02-24T17:50:20.538Z,14.98
2023-02-24T17:52:47.213Z,12.80
2023-02-24T17:55:13.755Z,16.75
2023-02-24T17:57:40.333Z,18.33
2023-02-24T18:00:08.157Z,18.02
2023-02-24T18:02:34.814Z,10.85
2023-02-24T18:05:02.735Z,14.05
2023-02-24T18:07:29.231Z,11.95
2023-02-24T18:09:55.725Z,8.95
2023-02-24T18:12:24.192Z,10.63
2023-02-24T18:15:07.412Z,5.88
2023-02-24T18:17:35.828Z,7.00
2023-02-24T18:20:02.753Z,4.57
2023-02-24T18:22:29.306Z,6.32
2023-02-24T18:24:55.789Z,8.93
2023-02-24T18:27:22.381Z,4.13
2023-02-24T18:29:49.028Z,3.97
2023-02-24T18:32:15.804Z,3.78
2023-02-24T18:34:42.471Z,6.55
2023-02-24T18:37:08.958Z,6.78
2023-02-24T18:39:35.645Z,7.28
2023-02-24T18:42:02.264Z,9.55
2023-02-24T18:44:29.350Z,8.93
2023-02-24T18:46:56.038Z,5.80
2023-02-24T18:49:22.708Z,9.02
2023-02-24T18:51:49.208Z,9.25
2023-02-24T18:54:18.413Z,8.57
2023-02-24T18:56:45.013Z,8.93
2023-02-24T18:59:11.748Z,9.02
2023-02-24T19:01:39.393Z,12.63
2023-02-24T19:04:07.768Z,9.55
2023-02-24T19:06:35.384Z,8.25
2023-02-24T19:09:10.355Z,8.43
2023-02-24T19:11:38.153Z,13.70
2023-02-24T19:14:05.130Z,6.95
2023-02-24T19:16:32.141Z,11.68
2023-02-24T19:18:59.969Z,10.90
2023-02-24T19:21:28.397Z,7.93
2023-02-24T19:23:55.081Z,10.77
2023-02-24T19:26:24.656Z,9.45
2023-02-24T19:28:54.636Z,8.50
2023-02-24T19:31:24.494Z,11.30
2023-02-24T19:33:55.881Z,11.57
2023-02-24T19:36:25.929Z,9.75
2023-02-24T19:38:52.985Z,6.27
2023-02-24T19:41:19.675Z,10.10
2023-02-24T19:43:46.235Z,13.10
2023-02-24T19:46:14.911Z,11.15
2023-02-24T19:48:58.551Z,6.43
2023-02-24T19:51:25.271Z,12.02
2023-02-24T19:53:54.219Z,14.13
2023-02-24T19:56:29.954Z,14.80
2023-02-24T19:58:57.800Z,16.48
2023-02-24T20:01:32.008Z,11.68
2023-02-24T20:04:01.351Z,8.70
2023-02-24T20:06:31.836Z,11.80
2023-02-24T20:08:59.704Z,11.98
2023-02-24T20:11:28.659Z,10.25
2023-02-24T20:13:55.361Z,18.45
2023-02-24T20:16:25.049Z,11.35
2023-02-24T20:18:53.866Z,12.65
2023-02-24T20:21:20.482Z,14.45
2023-02-24T20:23:47.036Z,14.70
2023-02-24T20:26:14.270Z,16.45
2023-02-24T20:28:45.350Z,14.13
2023-02-24T20:31:15.445Z,21.02
2023-02-24T20:33:43.702Z,13.38
2023-02-24T20:36:18.994Z,15.20
2023-02-24T20:38:45.846Z,13.82
2023-02-24T20:41:12.591Z,14.57
2023-02-24T20:43:39.405Z,11.10
2023-02-24T20:46:16.717Z,19.77
2023-02-24T20:48:44.098Z,10.35
2023-02-24T20:51:12.402Z,17.83
2023-02-24T20:53:54.555Z,19.67
2023-02-24T20:56:23.484Z,14.82
2023-02-24T20:58:52.661Z,14.52
2023-02-24T21:01:20.758Z,11.98
2023-02-24T21:03:48.272Z,21.92
2023-02-24T21:06:16.252Z,18.23
2023-02-24T21:08:45.966Z,19.38
2023-02-24T21:11:13.358Z,17.65
2023-02-24T21:13:44.496Z,16.67
2023-02-24T21:16:12.539Z,18.63
2023-02-24T21:18:40.831Z,19.30
2023-02-24T21:21:08.587Z,17.63
2023-02-24T21:23:36.724Z,23.83
2023-02-24T21:26:06.610Z,16.67
2023-02-24T21:28:34.102Z,11.10
2023-02-24T21:31:01.355Z,19.70
2023-02-24T21:33:27.932Z,25.00
2023-02-24T21:36:06.746Z,15.27
2023-02-24T21:38:37.291Z,17.80
2023-02-24T21:41:13.413Z,16.75
2023-02-24T21:43:40.244Z,21.52
2023-02-24T21:46:09.090Z,22.65
2023-02-24T21:48:37.002Z,18.80
2023-02-24T21:51:05.756Z,27.05
2023-02-24T21:53:35.371Z,20.08
2023-02-24T21:56:10.826Z,18.88
2023-02-24T21:58:39.136Z,21.50
2023-02-24T22:01:18.897Z,19.17
2023-02-24T22:03:45.663Z,23.23
2023-02-24T22:06:13.971Z,14.15
2023-02-24T22:08:43.566Z,22.83
2023-02-24T22:11:30.666Z,17.20
2023-02-24T22:13:57.423Z,24.63
2023-02-24T22:16:25.891Z,23.27
2023-02-24T22:18:53.610Z,18.90
2023-02-24T22:21:22.807Z,20.90
2023-02-24T22:24:02.858Z,19.20
2023-02-24T22:26:30.360Z,14.77
2023-02-24T22:29:00.713Z,18.98
2023-02-24T22:31:29.986Z,22.27
2023-02-24T22:34:00.248Z,19.83
2023-02-24T22:36:36.795Z,20.50
2023-02-24T22:39:06.464Z,25.40
2023-02-24T22:41:36.964Z,20.23
2023-02-24T22:44:06.679Z,23.48
2023-02-24T22:46:36.283Z,22.63
2023-02-24T22:49:04.744Z,15.43
2023-02-24T22:51:31.507Z,25.17
2023-02-24T22:53:58.081Z,23.50
2023-02-24T22:56:26.539Z,18.13
2023-02-24T22:58:53.477Z,16.17
2023-02-24T23:01:26.424Z,17.10
2023-02-24T23:03:53.642Z,17.75
2023-02-24T23:06:25.880Z,19.10
2023-02-24T23:08:53.447Z,15.90
2023-02-24T23:11:43.359Z,24.38
2023-02-24T23:14:13.782Z,14.18
2023-02-24T23:16:44.492Z,14.27
2023-02-24T23:19:16.036Z,20.08
2023-02-24T23:21:45.393Z,14.00
2023-02-24T23:24:14.068Z,12.90
2023-02-24T23:26:44.101Z,13.60
2023-02-24T23:29:12.975Z,10.97
2023-02-24T23:31:40.800Z,21.33
2023-02-24T23:34:07.873Z,12.88
2023-02-24T23:36:36.086Z,17.40
2023-02-24T23:39:04.537Z,15.95
2023-02-24T23:41:31.149Z,20.02
2023-02-24T23:43:58.392Z,17.13
2023-02-24T23:46:25.553Z,16.92
2023-02-24T23:48:53.148Z,13.60
2023-02-24T23:51:20.301Z,13.18
2023-02-24T23:53:47.986Z,16.65
2023-02-24T23:56:20.396Z,16.85
2023-02-24T23:58:51.690Z,13.30
